createdAt,value
2022-09-15T00:01:34.264Z,99016.31
2022-09-15T00:04:03.209Z,99016.50
2022-09-15T00:06:31.407Z,99013.97
2022-09-15T00:08:59.988Z,99001.81
2022-09-15T00:11:30.402Z,98981.38
2022-09-15T00:14:03.711Z,98988.00
2022-09-15T00:16:32.497Z,98980.16
2022-09-15T00:19:02.943Z,98943.25
2022-09-15T00:21:34.185Z,98909.94
2022-09-15T00:24:03.334Z,98926.44
2022-09-15T00:26:32.916Z,98936.16
2022-09-15T00:29:02.360Z,98933.72
2022-09-15T00:31:32.503Z,98948.59
2022-09-15T00:34:05.056Z,98962.03
2022-09-15T00:36:33.535Z,98998.88
2022-09-15T00:39:02.174Z,98999.25
2022-09-15T00:41:31.281Z,99015.84
2022-09-15T00:44:02.335Z,99027.22
2022-09-15T00:46:33.327Z,99032.13
2022-09-15T00:49:08.300Z,99047.31
2022-09-15T00:51:41.198Z,99058.47
2022-09-15T00:54:13.207Z,99056.97
2022-09-15T00:56:49.500Z,99060.50
2022-09-15T00:59:21.456Z,99063.16
2022-09-15T01:01:56.339Z,99052.94
2022-09-15T01:04:26.485Z,99054.38
2022-09-15T01:07:02.183Z,99057.88
2022-09-15T01:09:37.374Z,99066.47
2022-09-15T01:12:06.360Z,99061.22
2022-09-15T01:14:34.850Z,99075.97
2022-09-15T01:17:09.043Z,99080.47
2022-09-15T01:20:23.691Z,99063.75
2022-09-15T01:23:11.780Z,99054.47
2022-09-15T01:26:06.764Z,99062.44
2022-09-15T01:28:57.549Z,99065.69
2022-09-15T01:31:34.689Z,99051.13
2022-09-15T01:34:08.286Z,99054.25
2022-09-15T01:36:42.768Z,99061.34
2022-09-15T01:39:17.893Z,99046.50
2022-09-15T01:41:49.652Z,99041.44
2022-09-15T01:44:24.145Z,99051.97
2022-09-15T01:46:57.159Z,99054.50
2022-09-15T01:49:28.367Z,99058.69
2022-09-15T01:51:57.024Z,99063.63
2022-09-15T01:54:29.640Z,99063.16
2022-09-15T01:56:58.260Z,99061.47
2022-09-15T01:59:26.917Z,99061.47
2022-09-15T02:02:01.518Z,99056.06
2022-09-15T02:04:38.237Z,99069.75
2022-09-15T02:07:15.153Z,99060.97
2022-09-15T02:09:49.551Z,99067.59
2022-09-15T02:12:21.871Z,99064.91
2022-09-15T02:14:58.133Z,99066.75
2022-09-15T02:17:35.482Z,99065.25
2022-09-15T02:20:16.125Z,99052.91
2022-09-15T02:22:49.719Z,99055.09
2022-09-15T02:25:22.616Z,99060.84
2022-09-15T02:27:52.354Z,99060.69
2022-09-15T02:30:22.243Z,99060.84
2022-09-15T02:32:57.223Z,99059.47
2022-09-15T02:35:28.415Z,99062.19
2022-09-15T02:37:57.629Z,99057.63
2022-09-15T02:40:26.193Z,99055.38
2022-09-15T02:42:56.798Z,99065.78
2022-09-15T02:45:26.926Z,99075.66
2022-09-15T02:47:57.066Z,99067.19
2022-09-15T02:50:26.725Z,99069.88
2022-09-15T02:52:55.459Z,99070.78
2022-09-15T02:55:24.155Z,99068.56
2022-09-15T02:57:52.604Z,99068.56
2022-09-15T03:00:21.868Z,99065.75
2022-09-15T03:02:52.355Z,99066.63
2022-09-15T03:05:24.396Z,99064.25
2022-09-15T03:07:53.725Z,99056.97
2022-09-15T03:10:23.635Z,99062.47
2022-09-15T03:12:53.858Z,99059.47
2022-09-15T03:15:25.070Z,99066.25
2022-09-15T03:17:53.761Z,99068.31
2022-09-15T03:20:27.349Z,99061.53
2022-09-15T03:22:56.333Z,99060.56
2022-09-15T03:25:26.959Z,99062.91
2022-09-15T03:27:55.678Z,99058.69
2022-09-15T03:30:24.186Z,99064.94
2022-09-15T03:32:52.520Z,99067.31
2022-09-15T03:35:20.916Z,99065.88
2022-09-15T03:37:50.580Z,99049.44
2022-09-15T03:40:20.006Z,99066.53
2022-09-15T03:42:48.779Z,99056.59
2022-09-15T03:45:17.539Z,99059.28
2022-09-15T03:47:46.030Z,99060.50
2022-09-15T03:50:14.431Z,99056.22
2022-09-15T03:52:43.124Z,99054.03
2022-09-15T03:55:13.212Z,99054.34
2022-09-15T03:57:41.668Z,99055.94
2022-09-15T04:00:11.551Z,99051.88
2022-09-15T04:02:40.047Z,99060.00
2022-09-15T04:05:09.892Z,99059.16
2022-09-15T04:07:38.477Z,99064.72
2022-09-15T04:10:08.101Z,99065.38
2022-09-15T04:12:38.320Z,99063.88
2022-09-15T04:15:07.798Z,99074.88
2022-09-15T04:17:36.387Z,99085.19
2022-09-15T04:20:05.136Z,99077.78
2022-09-15T04:22:34.211Z,99078.41
2022-09-15T04:25:02.685Z,99062.56
2022-09-15T04:27:34.348Z,99064.91
2022-09-15T04:30:05.565Z,99061.88
2022-09-15T04:32:35.646Z,99062.56
2022-09-15T04:35:05.611Z,99083.81
2022-09-15T04:37:34.287Z,99089.38
2022-09-15T04:40:03.586Z,99102.56
2022-09-15T04:42:32.291Z,99101.97
2022-09-15T04:45:00.648Z,99097.53
2022-09-15T04:47:30.402Z,99098.25
2022-09-15T04:49:59.483Z,99089.06
2022-09-15T04:52:27.934Z,99086.00
2022-09-15T04:54:56.486Z,99080.38
2022-09-15T04:57:25.052Z,99084.69
2022-09-15T04:59:53.326Z,99076.00
2022-09-15T05:02:22.074Z,99068.63
2022-09-15T05:04:52.439Z,99057.38
2022-09-15T05:07:20.974Z,99063.25
2022-09-15T05:09:49.356Z,99060.06
2022-09-15T05:12:18.053Z,99065.13
2022-09-15T05:14:46.322Z,99075.94
2022-09-15T05:17:14.500Z,99086.13
2022-09-15T05:19:42.731Z,99089.47
2022-09-15T05:22:12.822Z,99096.13
2022-09-15T05:24:41.065Z,99111.78
2022-09-15T05:27:09.695Z,99122.09
2022-09-15T05:29:38.517Z,99131.13
2022-09-15T05:32:06.885Z,99122.63
2022-09-15T05:34:35.753Z,99127.56
2022-09-15T05:37:05.267Z,99137.63
2022-09-15T05:39:35.072Z,99141.34
2022-09-15T05:42:03.744Z,99141.53
2022-09-15T05:44:32.352Z,99136.00
2022-09-15T05:47:00.932Z,99144.59
2022-09-15T05:49:29.725Z,99142.38
2022-09-15T05:51:58.130Z,99137.91
2022-09-15T05:54:27.413Z,99145.75
2022-09-15T05:56:57.144Z,99126.78
2022-09-15T05:59:25.678Z,99129.31
2022-09-15T06:01:54.231Z,99127.75
2022-09-15T06:04:22.820Z,99134.56
2022-09-15T06:06:51.303Z,99133.56
2022-09-15T06:09:19.694Z,99123.63
2022-09-15T06:11:48.193Z,99136.25
2022-09-15T06:14:18.080Z,99143.63
2022-09-15T06:16:46.957Z,99144.97
2022-09-15T06:19:15.501Z,99136.94
2022-09-15T06:21:43.761Z,99135.91
2022-09-15T06:24:13.068Z,99137.94
2022-09-15T06:26:41.596Z,99144.88
2022-09-15T06:29:13.658Z,99143.16
2022-09-15T06:31:44.152Z,99161.59
2022-09-15T06:34:12.937Z,99171.22
2022-09-15T06:36:43.513Z,99169.34
2022-09-15T06:39:11.956Z,99168.31
2022-09-15T06:42:01.395Z,99158.06
2022-09-15T06:44:30.109Z,99167.38
2022-09-15T06:46:59.927Z,99168.22
2022-09-15T06:49:29.021Z,99171.00
2022-09-15T06:51:57.086Z,99171.94
2022-09-15T06:54:25.649Z,99178.84
2022-09-15T06:56:54.040Z,99170.34
2022-09-15T06:59:25.388Z,99187.81
2022-09-15T07:01:54.998Z,99190.44
2022-09-15T07:04:24.897Z,99184.75
2022-09-15T07:06:53.206Z,99184.81
2022-09-15T07:09:22.048Z,99178.25
2022-09-15T07:11:50.701Z,99171.34
2022-09-15T07:14:19.101Z,99185.00
2022-09-15T07:16:47.417Z,99196.59
2022-09-15T07:19:15.917Z,99195.31
2022-09-15T07:21:45.813Z,99189.72
2022-09-15T07:24:14.580Z,99194.41
2022-09-15T07:26:43.430Z,99198.53
2022-09-15T07:29:12.017Z,99207.31
2022-09-15T07:31:40.924Z,99205.34
2022-09-15T07:34:09.510Z,99206.28
2022-09-15T07:36:38.014Z,99207.78
2022-09-15T07:39:07.438Z,99212.06
2022-09-15T07:41:36.205Z,99210.88
2022-09-15T07:44:04.652Z,99218.03
2022-09-15T07:46:34.324Z,99219.88
2022-09-15T07:49:03.892Z,99217.28
2022-09-15T07:51:32.366Z,99217.03
2022-09-15T07:54:01.698Z,99223.44
2022-09-15T07:56:31.507Z,99219.59
2022-09-15T07:58:59.791Z,99212.25
2022-09-15T08:01:28.347Z,99216.88
2022-09-15T08:03:57.548Z,99216.63
2022-09-15T08:06:37.552Z,99223.72
2022-09-15T08:09:15.248Z,99225.19
2022-09-15T08:11:45.837Z,99218.34
2022-09-15T08:14:14.257Z,99226.78
2022-09-15T08:16:42.467Z,99234.81
2022-09-15T08:19:10.890Z,99218.41
2022-09-15T08:21:39.812Z,99216.72
2022-09-15T08:24:08.401Z,99226.34
2022-09-15T08:26:38.487Z,99228.88
2022-09-15T08:29:08.251Z,99223.00
2022-09-15T08:31:36.676Z,99214.63
2022-09-15T08:34:06.882Z,99216.78
2022-09-15T08:36:35.511Z,99216.94
2022-09-15T08:39:05.094Z,99214.50
2022-09-15T08:41:36.515Z,99205.13
2022-09-15T08:44:17.491Z,99193.81
2022-09-15T08:46:52.190Z,99197.81
2022-09-15T08:49:41.225Z,99201.63
2022-09-15T08:52:20.003Z,99198.06
2022-09-15T08:54:51.640Z,99199.75
2022-09-15T08:57:23.690Z,99192.63
2022-09-15T08:59:54.970Z,99182.56
2022-09-15T09:03:09.439Z,99179.94
2022-09-15T09:05:48.665Z,99174.47
2022-09-15T09:08:46.637Z,99174.72
2022-09-15T09:11:22.619Z,99164.22
2022-09-15T09:14:01.102Z,99156.44
2022-09-15T09:16:52.341Z,99155.59
2022-09-15T09:19:43.274Z,99149.09
2022-09-15T09:22:15.102Z,99150.34
2022-09-15T09:24:46.207Z,99147.00
2022-09-15T09:27:18.286Z,99147.19
2022-09-15T09:29:49.679Z,99134.81
2022-09-15T09:32:24.585Z,99129.81
2022-09-15T09:35:01.116Z,99135.66
2022-09-15T09:37:29.924Z,99144.91
2022-09-15T09:39:58.328Z,99141.69
2022-09-15T09:42:30.961Z,99133.84
2022-09-15T09:44:59.662Z,99139.72
2022-09-15T09:47:30.697Z,99143.91
2022-09-15T09:50:00.892Z,99137.91
2022-09-15T09:52:37.140Z,99125.53
2022-09-15T09:55:23.048Z,99127.72
2022-09-15T09:57:51.978Z,99124.75
2022-09-15T10:00:33.638Z,99114.59
2022-09-15T10:03:12.716Z,99115.00
2022-09-15T10:05:41.486Z,99105.66
2022-09-15T10:08:16.920Z,99109.91
2022-09-15T10:10:52.242Z,99090.28
2022-09-15T10:13:21.680Z,99101.91
2022-09-15T10:15:55.173Z,99093.41
2022-09-15T10:18:32.966Z,99088.81
2022-09-15T10:21:02.731Z,99084.31
2022-09-15T10:23:32.395Z,99082.00
2022-09-15T10:26:23.125Z,99071.09
2022-09-15T10:29:12.701Z,99057.56
2022-09-15T10:31:41.859Z,99053.53
2022-09-15T10:34:31.416Z,99053.03
2022-09-15T10:37:15.151Z,99053.91
2022-09-15T10:39:52.885Z,99051.81
2022-09-15T10:42:31.574Z,99058.34
2022-09-15T10:45:14.872Z,99067.16
2022-09-15T10:47:57.678Z,99062.25
2022-09-15T10:50:31.746Z,99063.38
2022-09-15T10:53:17.987Z,99061.41
2022-09-15T10:55:57.238Z,99076.16
2022-09-15T10:58:39.905Z,99066.91
2022-09-15T11:01:25.267Z,99068.09
2022-09-15T11:04:09.237Z,99058.38
2022-09-15T11:06:46.186Z,99061.81
2022-09-15T11:09:18.259Z,99060.59
2022-09-15T11:12:01.149Z,99052.53
2022-09-15T11:14:51.712Z,99052.94
2022-09-15T11:17:32.162Z,99048.31
2022-09-15T11:20:29.489Z,99053.00
2022-09-15T11:23:05.477Z,99061.44
2022-09-15T11:25:39.823Z,99065.06
2022-09-15T11:28:17.730Z,99067.81
2022-09-15T11:30:54.702Z,99066.19
2022-09-15T11:33:30.148Z,99063.34
2022-09-15T11:36:05.755Z,99063.88
2022-09-15T11:38:47.908Z,99053.50
2022-09-15T11:41:31.500Z,99058.16
2022-09-15T11:44:16.686Z,99043.91
2022-09-15T11:46:58.621Z,99025.88
2022-09-15T11:49:31.140Z,99017.03
2022-09-15T11:52:04.216Z,99017.91
2022-09-15T11:54:42.885Z,98997.09
2022-09-15T11:57:18.702Z,98997.47
2022-09-15T11:59:56.480Z,98989.63
2022-09-15T12:02:30.417Z,98986.88
2022-09-15T12:05:08.153Z,98979.69
2022-09-15T12:07:44.609Z,98983.88
2022-09-15T12:10:22.404Z,98991.00
2022-09-15T12:12:53.902Z,98999.97
2022-09-15T12:15:27.449Z,98999.47
2022-09-15T12:18:10.896Z,99009.34
2022-09-15T12:20:55.170Z,99012.00
2022-09-15T12:23:31.051Z,99002.69
2022-09-15T12:26:14.302Z,98992.84
2022-09-15T12:28:54.158Z,98993.56
2022-09-15T12:31:35.183Z,98989.84
2022-09-15T12:34:06.393Z,98989.00
2022-09-15T12:36:38.223Z,98977.91
2022-09-15T12:39:22.211Z,98973.97
2022-09-15T12:41:54.384Z,98974.81
2022-09-15T12:44:33.806Z,98966.19
2022-09-15T12:47:04.330Z,98974.59
2022-09-15T12:49:36.972Z,98974.75
2022-09-15T12:52:08.145Z,98965.53
2022-09-15T12:54:39.955Z,98946.63
2022-09-15T12:57:25.356Z,98955.66
2022-09-15T13:00:27.529Z,98968.75
2022-09-15T13:02:57.214Z,98972.09
2022-09-15T13:06:19.516Z,98954.50
2022-09-15T13:08:53.811Z,98953.91
2022-09-15T13:11:28.456Z,98966.72
2022-09-15T13:14:11.500Z,99024.34
2022-09-15T13:16:49.076Z,99024.72
2022-09-15T16:22:02.428Z,98969.22
2022-09-15T16:24:31.109Z,98948.06
2022-09-15T16:26:59.884Z,98929.16
2022-09-15T16:29:36.053Z,98937.63
2022-09-15T16:32:07.145Z,98928.84
2022-09-15T16:34:35.242Z,98929.94
2022-09-15T16:37:04.758Z,98942.75
2022-09-15T16:39:33.010Z,98960.31
2022-09-15T16:42:01.279Z,98947.34
2022-09-15T16:44:29.369Z,98947.88
2022-09-15T16:46:57.526Z,98950.06
2022-09-15T16:49:26.131Z,98959.00
2022-09-15T16:51:54.399Z,98977.78
2022-09-15T16:54:23.779Z,98971.19
2022-09-15T16:56:51.982Z,98981.47
2022-09-15T16:59:20.036Z,98984.25
2022-09-15T17:01:48.217Z,98985.09
2022-09-15T17:04:19.101Z,98991.34
2022-09-15T17:06:47.483Z,98981.03
2022-09-15T17:09:15.495Z,98977.66
2022-09-15T17:11:44.986Z,98986.31
2022-09-15T17:14:15.494Z,98985.66
2022-09-15T17:16:46.728Z,98989.38
2022-09-15T17:19:14.902Z,98989.53
2022-09-15T17:21:43.064Z,98990.72
2022-09-15T17:24:11.652Z,98982.78
2022-09-15T17:26:39.719Z,98990.06
2022-09-15T17:29:09.165Z,98988.03
2022-09-15T17:31:37.272Z,98988.56
2022-09-15T17:34:05.344Z,98982.81
2022-09-15T17:36:36.179Z,98966.63
2022-09-15T17:39:04.496Z,98969.13
2022-09-15T17:41:33.418Z,98970.81
2022-09-15T17:44:01.492Z,98967.47
2022-09-15T17:46:30.918Z,98968.84
2022-09-15T17:48:59.057Z,98964.44
2022-09-15T17:51:27.186Z,98967.81
2022-09-15T17:53:55.293Z,98970.50
2022-09-15T17:56:23.359Z,98968.16
2022-09-15T17:58:51.479Z,98970.16
2022-09-15T18:01:19.630Z,98974.72
2022-09-15T18:03:50.068Z,98976.25
2022-09-15T18:06:18.182Z,98959.56
2022-09-15T18:08:46.632Z,98971.84
2022-09-15T18:11:15.923Z,98967.47
2022-09-15T18:13:44.008Z,98962.59
2022-09-15T18:16:14.424Z,98968.31
2022-09-15T18:18:42.944Z,98977.63
2022-09-15T18:21:25.799Z,98972.22
2022-09-15T18:23:54.777Z,98976.78
2022-09-15T18:26:26.243Z,98981.16
2022-09-15T18:28:55.701Z,98989.06
2022-09-15T18:31:23.882Z,98988.22
2022-09-15T18:33:52.040Z,98985.72
2022-09-15T18:36:21.507Z,98991.47
2022-09-15T18:38:49.513Z,98992.13
2022-09-15T18:41:17.623Z,98989.78
2022-09-15T18:43:48.970Z,98990.97
2022-09-15T18:46:17.922Z,98995.53
2022-09-15T18:48:46.145Z,98990.13
2022-09-15T18:51:23.766Z,98999.22
2022-09-15T18:53:54.555Z,98988.41
2022-09-15T18:56:22.787Z,98999.22
2022-09-15T18:58:53.687Z,99002.91
2022-09-15T19:01:22.932Z,99007.47
2022-09-15T19:03:51.476Z,99008.66
2022-09-15T19:06:19.522Z,99003.63
2022-09-15T19:08:47.867Z,99019.28
2022-09-15T19:11:17.620Z,99025.19
2022-09-15T19:13:45.736Z,99033.47
2022-09-15T19:16:14.009Z,99018.44
2022-09-15T19:18:44.859Z,99017.44
2022-09-15T19:21:13.220Z,99015.41
2022-09-15T19:23:41.325Z,99017.94
2022-09-15T19:26:13.574Z,99024.84
2022-09-15T19:28:43.501Z,99012.06
2022-09-15T19:31:12.288Z,99008.34
2022-09-15T19:33:41.021Z,99029.56
2022-09-15T19:36:27.304Z,99030.25
2022-09-15T19:38:56.868Z,99021.31
2022-09-15T19:41:25.300Z,99032.94
2022-09-15T19:43:55.061Z,99027.91
2022-09-15T19:46:25.737Z,99018.78
2022-09-15T19:48:55.589Z,99027.91
2022-09-15T19:51:24.235Z,99025.03
2022-09-15T19:53:55.442Z,99027.91
2022-09-15T19:56:26.192Z,99038.88
2022-09-15T19:58:57.267Z,99044.09
2022-09-15T20:01:27.719Z,99048.97
2022-09-15T20:03:57.280Z,99043.72
2022-09-15T20:06:30.223Z,99040.19
2022-09-15T20:09:00.647Z,99038.00
2022-09-15T20:11:30.761Z,99039.69
2022-09-15T20:14:01.087Z,99048.81
2022-09-15T20:16:29.156Z,99056.22
2022-09-15T20:18:57.231Z,99052.19
2022-09-15T20:21:48.764Z,99061.94
2022-09-15T20:24:15.290Z,99059.25
2022-09-15T20:26:43.718Z,99069.88
2022-09-15T20:29:13.712Z,99061.59
2022-09-15T20:31:42.602Z,99069.03
2022-09-15T20:34:10.804Z,99064.13
2022-09-15T20:36:40.050Z,99058.91
2022-09-15T20:39:10.571Z,99055.06
2022-09-15T20:41:39.249Z,99070.88
2022-09-15T20:44:09.393Z,99075.75
2022-09-15T20:46:39.342Z,99081.69
2022-09-15T20:49:08.975Z,99080.16
2022-09-15T20:51:37.190Z,99087.56
2022-09-15T20:54:06.112Z,99099.19
2022-09-15T20:56:36.113Z,99099.34
2022-09-15T20:59:06.012Z,99106.78
2022-09-15T21:01:36.308Z,99092.97
2022-09-15T21:04:06.783Z,99089.56
2022-09-15T21:06:35.016Z,99096.00
2022-09-15T21:09:03.769Z,99102.41
2022-09-15T21:11:31.863Z,99108.81
2022-09-15T21:13:59.956Z,99115.22
2022-09-15T21:16:29.431Z,99107.44
2022-09-15T21:18:59.229Z,99109.47
2022-09-15T21:21:30.804Z,99108.13
2022-09-15T21:24:01.167Z,99099.03
2022-09-15T21:26:31.522Z,99097.34
2022-09-15T21:28:59.592Z,99100.06
2022-09-15T21:31:29.960Z,99099.03
2022-09-15T21:33:59.855Z,99094.13
2022-09-15T21:36:30.520Z,99107.13
2022-09-15T21:39:00.553Z,99104.25
2022-09-15T21:41:30.247Z,99103.03
2022-09-15T21:43:59.379Z,99103.22
2022-09-15T21:46:29.326Z,99105.09
2022-09-15T21:48:59.019Z,99113.66
2022-09-15T21:51:30.921Z,99119.50
2022-09-15T21:54:00.291Z,99128.34
2022-09-15T21:56:30.090Z,99142.81
2022-09-15T21:58:58.840Z,99135.75
2022-09-15T22:01:29.211Z,99153.66
2022-09-15T22:03:59.586Z,99157.88
2022-09-15T22:06:31.967Z,99165.75
2022-09-15T22:09:00.548Z,99162.34
2022-09-15T22:11:29.012Z,99167.56
2022-09-15T22:13:57.416Z,99172.78
2022-09-15T22:16:26.275Z,99176.81
2022-09-15T22:18:54.578Z,99179.81
2022-09-15T22:21:24.750Z,99185.91
2022-09-15T22:23:55.879Z,99184.56
2022-09-15T22:26:26.222Z,99195.31
2022-09-15T22:28:55.198Z,99195.34
2022-09-15T22:31:25.414Z,99181.84
2022-09-15T22:33:54.318Z,99184.41
2022-09-15T22:36:28.121Z,99190.81
2022-09-15T22:39:04.028Z,99193.28
2022-09-15T22:41:33.262Z,99204.06
2022-09-15T22:44:01.461Z,99200.31
2022-09-15T22:46:29.693Z,99205.03
2022-09-15T22:48:58.120Z,99212.53
2022-09-15T22:51:26.211Z,99213.13
2022-09-15T22:53:57.266Z,99220.81
2022-09-15T22:56:27.507Z,99222.84
2022-09-15T22:58:56.631Z,99225.22
2022-09-15T23:01:26.942Z,99225.94
2022-09-15T23:03:56.248Z,99233.72
2022-09-15T23:06:25.362Z,99236.03
2022-09-15T23:08:54.918Z,99244.88
2022-09-15T23:11:23.729Z,99239.13
2022-09-15T23:13:53.675Z,99256.31
2022-09-15T23:16:23.205Z,99261.31
2022-09-15T23:18:51.714Z,99267.88
2022-09-15T23:21:20.321Z,99269.38
2022-09-15T23:23:49.268Z,99278.31
2022-09-15T23:26:20.580Z,99280.66
2022-09-15T23:28:49.266Z,99269.22
2022-09-15T23:31:19.443Z,99281.41
2022-09-15T23:33:47.897Z,99271.97
2022-09-15T23:36:19.408Z,99266.97
2022-09-15T23:38:48.889Z,99275.56
2022-09-15T23:41:17.896Z,99268.50
2022-09-15T23:43:46.645Z,99253.22
2022-09-15T23:46:15.107Z,99264.72
2022-09-15T23:48:44.556Z,99266.69
2022-09-15T23:51:13.116Z,99276.59
2022-09-15T23:53:41.106Z,99277.59
2022-09-15T23:56:09.295Z,99283.44
2022-09-15T23:58:37.459Z,99274.63
